Time;durP1;ratioP1;P1;durP2;ratioP2;P2;SDS_P1;SDS_P2;PMS_P1;PMS_P2;Temp;Humidity;BMP_temperature;BMP_pressure;BME280_temperature;BME280_humidity;BME280_pressure;Samples;Min_cycle;Max_cycle;Signal;HPM_P1;HPM_P2
2021/06/27 00:01:04;;;;;;;11.52;10.32;;;;;;;15.31;80.77;100871.91;5046319;28;20029;-79
2021/06/27 00:03:30;;;;;;;13.25;11.95;;;;;;;15.29;80.28;100867.53;5042195;28;20038;-79
2021/06/27 00:05:55;;;;;;;12.50;10.20;;;;;;;15.23;79.87;100867.66;5047829;28;20047;-79
2021/06/27 00:08:20;;;;;;;12.18;10.40;;;;;;;15.15;80.48;100873.13;5049587;28;20080;-79
2021/06/27 00:10:46;;;;;;;10.75;9.65;;;;;;;15.09;81.23;100865.25;5047243;28;20034;-79
2021/06/27 00:13:12;;;;;;;13.48;12.07;;;;;;;15.00;82.28;100874.28;5048471;28;20041;-79
2021/06/27 00:15:41;;;;;;;12.40;11.20;;;;;;;14.99;82.06;100869.00;5047989;28;20052;-79
2021/06/27 00:18:08;;;;;;;13.35;11.27;;;;;;;15.02;82.04;100868.94;5047139;28;20183;-79
2021/06/27 00:20:35;;;;;;;14.25;12.70;;;;;;;15.00;81.85;100870.75;5048839;28;20044;-78
2021/06/27 00:23:01;;;;;;;14.95;13.45;;;;;;;14.93;82.39;100866.44;5043451;28;20038;-79
2021/06/27 00:25:29;;;;;;;14.80;13.30;;;;;;;14.92;82.47;100862.91;5046514;28;20041;-79
2021/06/27 00:27:55;;;;;;;14.68;13.23;;;;;;;14.89;82.12;100855.88;5049457;28;20056;-79
2021/06/27 00:30:22;;;;;;;13.48;12.18;;;;;;;14.88;82.19;100859.47;5046523;28;20037;-79
2021/06/27 00:32:48;;;;;;;12.77;11.45;;;;;;;14.83;82.47;100858.66;5046927;28;20042;-79
2021/06/27 00:35:15;;;;;;;16.98;12.82;;;;;;;14.80;83.12;100856.06;5049084;28;20025;-79
2021/06/27 00:37:41;;;;;;;12.77;11.50;;;;;;;14.79;82.47;100862.25;5045844;28;20029;-79
2021/06/27 00:40:09;;;;;;;14.07;12.68;;;;;;;14.79;82.42;100862.25;5046943;28;20034;-79
2021/06/27 00:42:35;;;;;;;16.20;14.50;;;;;;;14.71;83.03;100868.63;5047249;28;20040;-78
2021/06/27 00:45:01;;;;;;;15.68;14.07;;;;;;;14.64;83.52;100865.19;5044361;28;20033;-79
2021/06/27 00:47:31;;;;;;;15.15;13.65;;;;;;;14.62;83.78;100869.69;5047037;28;20044;-79
2021/06/27 00:49:56;;;;;;;14.63;13.10;;;;;;;14.60;83.54;100864.38;5047451;28;20119;-79
2021/06/27 00:52:22;;;;;;;15.50;13.70;;;;;;;14.57;83.60;100871.53;5046517;28;20068;-78
2021/06/27 00:54:47;;;;;;;14.85;13.35;;;;;;;14.58;83.17;100867.97;5046355;28;20558;-79
2021/06/27 00:57:13;;;;;;;17.58;15.68;;;;;;;14.59;82.85;100867.06;5047674;28;20041;-79
2021/06/27 00:59:39;;;;;;;13.43;11.95;;;;;;;14.56;82.03;100867.97;5046003;28;20072;-79
2021/06/27 01:02:05;;;;;;;13.85;12.43;;;;;;;14.50;82.53;100864.53;5047882;28;20047;-79
2021/06/27 01:04:31;;;;;;;14.23;12.70;;;;;;;14.39;83.18;100854.97;5047433;28;20636;-79
2021/06/27 01:06:56;;;;;;;13.52;12.20;;;;;;;14.35;83.40;100860.34;5045648;28;20031;-79
2021/06/27 01:09:22;;;;;;;15.48;13.88;;;;;;;14.28;83.70;100850.72;5045322;28;20039;-79
2021/06/27 01:11:47;;;;;;;12.52;10.90;;;;;;;14.25;83.77;100859.59;5044528;28;20037;-79
2021/06/27 01:14:12;;;;;;;12.48;9.55;;;;;;;14.26;82.94;100850.75;5047708;28;20056;-79
2021/06/27 01:16:40;;;;;;;10.25;9.25;;;;;;;14.23;82.71;100846.38;5045040;28;20025;-78
2021/06/27 01:19:09;;;;;;;11.38;9.98;;;;;;;14.19;82.89;100849.97;5044197;28;20064;-79
2021/06/27 01:21:36;;;;;;;14.15;12.20;;;;;;;14.19;82.84;100843.78;5047310;28;20033;-79
2021/06/27 01:24:02;;;;;;;13.68;12.23;;;;;;;14.20;83.22;100853.50;5045995;28;20033;-79
2021/06/27 01:26:27;;;;;;;14.52;12.52;;;;;;;14.19;83.44;100849.97;5043564;28;20052;-79
2021/06/27 01:28:53;;;;;;;13.45;11.40;;;;;;;14.16;83.61;100849.16;5046824;28;20033;-79
2021/06/27 01:31:19;;;;;;;13.32;11.93;;;;;;;14.12;83.46;100844.78;5047189;28;20399;-79
2021/06/27 01:33:48;;;;;;;13.18;11.82;;;;;;;14.07;83.72;100843.97;5044892;28;20048;-79
2021/06/27 01:36:14;;;;;;;14.40;12.63;;;;;;;14.07;84.10;100839.56;5046446;28;20029;-79
2021/06/27 01:38:39;;;;;;;16.35;14.75;;;;;;;14.08;83.40;100843.97;5045904;28;20087;-79
2021/06/27 01:41:05;;;;;;;16.60;13.48;;;;;;;14.11;83.56;100837.72;5027801;28;20137;-79
2021/06/27 01:43:31;;;;;;;10.38;9.27;;;;;;;14.05;82.81;100838.72;5045512;28;20052;-78
2021/06/27 01:46:02;;;;;;;8.73;7.82;;;;;;;13.95;83.30;100835.31;5047471;28;20033;-79
2021/06/27 01:48:32;;;;;;;14.50;12.15;;;;;;;13.92;83.59;100838.00;5046221;28;20079;-79
2021/06/27 01:51:00;;;;;;;11.75;10.55;;;;;;;13.85;83.59;100841.66;5043412;28;20065;-79
2021/06/27 01:53:32;;;;;;;16.35;13.70;;;;;;;13.81;84.17;100838.19;5046402;28;20029;-79
2021/06/27 01:56:05;;;;;;;15.63;14.07;;;;;;;13.82;84.38;100839.06;5046456;28;20037;-79
2021/06/27 01:58:41;;;;;;;16.48;14.75;;;;;;;13.78;84.79;100840.88;5046038;28;20033;-79
2021/06/27 02:01:17;;;;;;;18.13;16.13;;;;;;;13.75;85.06;100843.59;5024611;28;20610;-79
2021/06/27 02:03:42;;;;;;;18.08;16.25;;;;;;;13.72;85.61;100837.44;5054976;28;20488;-79
2021/06/27 02:06:09;;;;;;;15.48;13.88;;;;;;;13.69;85.86;100837.47;5045177;28;20078;-79
2021/06/27 02:08:37;;;;;;;14.52;12.68;;;;;;;13.64;85.87;100834.88;5046528;28;20029;-79
2021/06/27 02:11:04;;;;;;;16.70;15.02;;;;;;;13.61;85.05;100849.97;5045683;28;20476;-79
2021/06/27 02:13:30;;;;;;;12.82;11.63;;;;;;;13.58;85.00;100842.94;5044984;28;20048;-79
2021/06/27 02:15:56;;;;;;;13.82;11.75;;;;;;;13.52;85.32;100835.94;5042840;28;20048;-79
2021/06/27 02:18:24;;;;;;;14.88;13.38;;;;;;;13.55;84.84;100849.16;5044437;28;20045;-79
2021/06/27 02:20:50;;;;;;;12.50;11.07;;;;;;;13.57;85.01;100839.41;5047409;28;20033;-79
2021/06/27 02:23:15;;;;;;;20.98;17.35;;;;;;;13.59;84.83;100842.88;5041026;28;20048;-79
2021/06/27 02:25:41;;;;;;;14.85;13.35;;;;;;;13.57;84.91;100843.81;5043405;28;20084;-79
2021/06/27 02:28:06;;;;;;;14.25;12.75;;;;;;;13.57;84.61;100847.38;5043413;28;20173;-78
2021/06/27 02:30:31;;;;;;;18.02;16.23;;;;;;;13.56;84.93;100847.38;5045691;28;20037;-79
2021/06/27 02:32:56;;;;;;;14.65;13.13;;;;;;;13.54;84.92;100850.03;5045230;28;20483;-79
2021/06/27 02:35:22;;;;;;;16.55;13.82;;;;;;;13.56;84.88;100848.25;5043679;28;20095;-79
2021/06/27 02:37:47;;;;;;;15.27;13.77;;;;;;;13.53;84.60;100853.59;5046335;28;20076;-79
2021/06/27 02:40:13;;;;;;;13.32;11.93;;;;;;;13.51;84.66;100847.41;5046948;28;20040;-79
2021/06/27 02:42:39;;;;;;;16.40;13.95;;;;;;;13.51;84.31;100847.41;5045393;28;20033;-79
2021/06/27 02:45:07;;;;;;;14.32;12.88;;;;;;;13.49;84.63;100851.91;5048679;28;20507;-79
2021/06/27 02:47:32;;;;;;;14.88;12.25;;;;;;;13.47;84.63;100847.50;5048730;28;20037;-79
2021/06/27 02:49:57;;;;;;;14.07;12.68;;;;;;;13.45;84.70;100849.28;5050905;28;20037;-79
2021/06/27 02:52:23;;;;;;;14.73;13.23;;;;;;;13.42;84.92;100852.88;5049487;28;20092;-79
2021/06/27 02:54:48;;;;;;;13.77;12.38;;;;;;;13.37;85.03;100842.31;5048140;28;20029;-79
2021/06/27 02:57:14;;;;;;;13.25;11.85;;;;;;;13.35;84.35;100851.19;5048882;28;20438;-79
2021/06/27 02:59:39;;;;;;;14.63;13.13;;;;;;;13.31;84.67;100852.13;5049257;28;20150;-79
2021/06/27 03:02:04;;;;;;;12.75;11.50;;;;;;;13.29;84.60;100852.13;5047500;28;20126;-79
2021/06/27 03:04:30;;;;;;;10.27;8.95;;;;;;;13.31;84.72;100846.81;5048149;28;20029;-79
2021/06/27 03:06:55;;;;;;;11.18;10.07;;;;;;;13.32;84.35;100848.56;5048914;28;20040;-79
2021/06/27 03:09:20;;;;;;;12.82;9.73;;;;;;;13.31;84.46;100858.31;5046654;28;20518;-79
2021/06/27 03:11:46;;;;;;;10.43;9.32;;;;;;;13.32;84.55;100853.88;5049860;28;20037;-79
2021/06/27 03:14:11;;;;;;;9.98;9.00;;;;;;;13.27;84.53;100858.34;5047638;28;20044;-79
2021/06/27 03:16:36;;;;;;;9.32;7.50;;;;;;;13.23;84.16;100864.53;5046563;28;20435;-79
2021/06/27 03:19:02;;;;;;;9.13;8.23;;;;;;;13.19;84.32;100855.75;5047729;28;20052;-78
2021/06/27 03:21:27;;;;;;;8.63;7.70;;;;;;;13.13;84.73;100864.66;5048480;28;20063;-79
2021/06/27 03:23:52;;;;;;;11.27;10.07;;;;;;;13.13;84.81;100866.44;5046697;28;20079;-78
2021/06/27 03:26:17;;;;;;;11.95;10.65;;;;;;;13.15;84.69;100867.28;5046987;28;20037;-79
2021/06/27 03:28:46;;;;;;;11.07;9.95;;;;;;;13.19;84.33;100874.31;5041410;28;20156;-79
2021/06/27 03:31:11;;;;;;;14.68;13.07;;;;;;;13.24;84.99;100866.31;5045004;28;20042;-79
2021/06/27 03:33:37;;;;;;;13.27;11.13;;;;;;;13.27;85.32;100866.31;5047539;28;20029;-79
2021/06/27 03:36:02;;;;;;;10.38;9.38;;;;;;;13.33;84.58;100871.50;5046944;28;20484;-79
2021/06/27 03:40:53;;;;;;;15.02;13.48;;;;;;;13.42;85.20;100868.78;5048170;28;20479;-78
2021/06/27 03:43:19;;;;;;;12.45;11.15;;;;;;;13.47;84.53;100863.41;5046907;28;20028;-79
2021/06/27 03:45:44;;;;;;;13.02;11.10;;;;;;;13.53;84.28;100861.53;5046020;28;20488;-79
2021/06/27 03:48:09;;;;;;;14.65;13.15;;;;;;;13.61;84.26;100856.13;5047604;28;20037;-78
2021/06/27 03:50:35;;;;;;;17.88;13.70;;;;;;;13.69;83.81;100858.69;5047769;28;20069;-79
2021/06/27 03:53:01;;;;;;;14.90;13.10;;;;;;;13.70;83.85;100852.47;5046469;28;20036;-79
2021/06/27 03:55:26;;;;;;;14.80;12.95;;;;;;;13.73;83.67;100855.97;5046811;28;20056;-79
2021/06/27 03:57:52;;;;;;;13.75;12.38;;;;;;;13.81;84.13;100856.75;5049365;28;20040;-79
2021/06/27 04:00:18;;;;;;;14.10;12.50;;;;;;;13.91;83.70;100853.94;5046963;28;20021;-78
2021/06/27 04:02:43;;;;;;;13.52;11.82;;;;;;;13.98;83.42;100856.50;5047398;28;20505;-79
2021/06/27 04:05:10;;;;;;;13.00;11.63;;;;;;;14.07;83.32;100855.50;5048222;28;20025;-78
2021/06/27 04:07:35;;;;;;;14.23;12.73;;;;;;;14.14;83.17;100850.94;5046605;28;20446;-79
2021/06/27 04:10:01;;;;;;;13.82;12.15;;;;;;;14.21;83.41;100842.88;5045368;28;20041;-79
2021/06/27 04:12:26;;;;;;;14.27;12.88;;;;;;;14.30;82.97;100848.94;5048427;28;20044;-79
2021/06/27 04:14:51;;;;;;;13.52;12.13;;;;;;;14.35;82.96;100850.59;5046692;28;20042;-79
2021/06/27 04:17:20;;;;;;;14.35;12.70;;;;;;;14.43;82.68;100848.69;5047056;28;20040;-79
2021/06/27 04:19:45;;;;;;;15.15;13.63;;;;;;;14.50;83.22;100854.78;5047660;28;20040;-79
2021/06/27 04:22:10;;;;;;;12.57;11.25;;;;;;;14.50;83.29;100856.56;5029510;28;20507;-79
2021/06/27 04:24:36;;;;;;;13.38;11.95;;;;;;;14.59;83.08;100856.44;5045084;28;20033;-79
2021/06/27 04:27:02;;;;;;;15.45;13.85;;;;;;;14.66;83.42;100855.41;5048689;28;20090;-79
2021/06/27 04:29:27;;;;;;;15.13;13.45;;;;;;;14.74;83.04;100857.94;5045951;28;20403;-79
2021/06/27 04:31:53;;;;;;;15.13;13.18;;;;;;;14.81;82.89;100855.16;5046762;28;20069;-79
2021/06/27 04:34:20;;;;;;;15.90;14.13;;;;;;;14.87;82.96;100859.47;5049022;28;20029;-79
2021/06/27 04:36:46;;;;;;;17.77;16.08;;;;;;;14.88;83.50;100862.13;5046830;28;20097;-79
2021/06/27 04:39:14;;;;;;;18.77;16.90;;;;;;;14.92;84.04;100864.72;5044721;28;20040;-79
2021/06/27 04:41:39;;;;;;;17.02;15.27;;;;;;;14.97;84.13;100865.50;5047920;28;20127;-79
2021/06/27 04:44:05;;;;;;;18.63;16.75;;;;;;;15.01;83.96;100862.75;5046743;28;20122;-79
2021/06/27 04:46:31;;;;;;;18.92;16.98;;;;;;;15.10;83.87;100867.88;5044465;28;20130;-79
2021/06/27 04:48:57;;;;;;;16.75;14.95;;;;;;;15.16;84.03;100872.19;5047299;28;20032;-79
2021/06/27 04:51:23;;;;;;;19.55;16.67;;;;;;;15.22;83.49;100863.22;5048737;28;20052;-79
2021/06/27 04:53:48;;;;;;;18.25;16.42;;;;;;;15.33;83.29;100858.59;5008541;28;20485;-79
2021/06/27 04:56:13;;;;;;;17.85;15.95;;;;;;;15.41;83.66;100863.75;5045994;28;20048;-79
2021/06/27 04:58:39;;;;;;;21.13;16.70;;;;;;;15.52;83.24;100875.03;5046154;28;20487;-79
2021/06/27 05:01:04;;;;;;;19.75;15.73;;;;;;;15.59;83.02;100867.78;5048534;28;20060;-79
2021/06/27 05:03:30;;;;;;;22.05;18.80;;;;;;;15.63;82.69;100866.81;5047844;28;20156;-79
2021/06/27 05:05:55;;;;;;;17.55;15.70;;;;;;;15.70;82.63;100856.03;5044544;28;20099;-79
2021/06/27 05:08:20;;;;;;;22.52;20.38;;;;;;;15.81;82.21;100854.94;5048165;28;20036;-79
2021/06/27 05:10:46;;;;;;;21.10;17.35;;;;;;;15.89;82.00;100850.31;5047047;28;20036;-79
2021/06/27 05:13:11;;;;;;;19.52;17.52;;;;;;;15.93;81.96;100854.66;5046195;28;20048;-79
2021/06/27 05:15:36;;;;;;;17.90;16.10;;;;;;;16.02;81.69;100846.44;5047224;28;20029;-79
2021/06/27 05:18:02;;;;;;;21.05;17.80;;;;;;;16.20;81.28;100845.13;5048169;28;20033;-79
2021/06/27 05:20:28;;;;;;;20.38;16.63;;;;;;;16.33;80.82;100846.56;5046061;28;20411;-79
2021/06/27 05:22:53;;;;;;;19.13;17.02;;;;;;;16.45;80.56;100848.03;5048136;28;20041;-79
2021/06/27 05:25:18;;;;;;;19.15;17.25;;;;;;;16.52;80.36;100852.31;5046950;28;20052;-79
2021/06/27 05:27:44;;;;;;;18.27;16.35;;;;;;;16.58;80.27;100856.59;5047035;28;20041;-79
2021/06/27 05:30:10;;;;;;;20.00;17.92;;;;;;;16.71;80.07;100855.38;5048186;28;20137;-79
2021/06/27 05:32:35;;;;;;;21.80;18.42;;;;;;;16.83;79.62;100854.22;5048407;28;20052;-79
2021/06/27 05:35:01;;;;;;;20.17;17.90;;;;;;;16.94;79.34;100857.44;5046499;28;20435;-79
2021/06/27 05:37:26;;;;;;;19.30;17.45;;;;;;;17.04;78.45;100856.28;5047719;28;20028;-79
2021/06/27 05:39:51;;;;;;;16.95;15.25;;;;;;;17.16;78.13;100856.84;5047320;28;20045;-79
2021/06/27 05:42:19;;;;;;;17.35;15.75;;;;;;;17.23;77.88;100856.63;5046330;28;20025;-79
2021/06/27 05:44:44;;;;;;;18.42;16.55;;;;;;;17.32;77.73;100852.84;5045437;28;20040;-79
2021/06/27 05:47:10;;;;;;;16.83;15.05;;;;;;;17.42;77.26;100853.44;5048037;28;20526;-79
2021/06/27 05:49:35;;;;;;;18.90;17.05;;;;;;;17.51;77.11;100854.06;5046331;28;20033;-79
2021/06/27 05:52:00;;;;;;;16.40;14.65;;;;;;;17.62;76.74;100855.53;5046271;28;20063;-79
2021/06/27 05:54:26;;;;;;;19.65;17.60;;;;;;;17.72;76.65;100863.19;5047575;28;20036;-79
2021/06/27 05:56:51;;;;;;;19.13;16.90;;;;;;;17.77;76.37;100852.38;5042588;28;20063;-79
2021/06/27 05:59:16;;;;;;;18.45;16.30;;;;;;;17.86;76.45;100857.47;5046437;28;20021;-79
2021/06/27 06:01:42;;;;;;;17.85;15.52;;;;;;;17.92;76.29;100853.72;5048926;28;20039;-79
2021/06/27 06:04:07;;;;;;;20.05;18.02;;;;;;;18.07;75.92;100858.59;5045184;28;20029;-79
2021/06/27 06:06:32;;;;;;;20.55;18.45;;;;;;;18.18;74.95;100856.47;5049592;28;20066;-79
2021/06/27 06:08:58;;;;;;;20.65;18.52;;;;;;;18.27;74.69;100849.94;5048302;28;20033;-79
2021/06/27 06:11:25;;;;;;;21.13;19.00;;;;;;;18.29;74.53;100848.09;5045753;28;20047;-79
2021/06/27 06:13:50;;;;;;;20.30;18.20;;;;;;;18.40;74.23;100848.59;5045316;28;20098;-79
2021/06/27 06:16:16;;;;;;;19.70;17.33;;;;;;;18.50;73.89;100850.97;5047480;28;20071;-79
2021/06/27 06:18:44;;;;;;;18.52;16.73;;;;;;;18.62;73.89;100855.88;5045572;28;20567;-79
2021/06/27 06:21:10;;;;;;;16.50;14.55;;;;;;;18.74;73.22;100855.47;5046091;28;20443;-79
2021/06/27 06:23:35;;;;;;;20.27;17.95;;;;;;;18.80;73.26;100855.28;5047813;28;20040;-79
2021/06/27 06:26:00;;;;;;;20.60;18.50;;;;;;;18.87;73.47;100860.44;5046208;28;20065;-79
2021/06/27 06:28:26;;;;;;;18.20;16.15;;;;;;;18.97;72.91;100862.72;5046693;28;20040;-79
2021/06/27 06:30:51;;;;;;;15.80;14.15;;;;;;;19.07;72.50;100863.25;5048361;28;20273;-79
2021/06/27 06:33:17;;;;;;;18.80;17.00;;;;;;;19.18;71.67;100858.41;5046021;28;20571;-79
2021/06/27 06:35:42;;;;;;;21.05;17.70;;;;;;;19.25;71.60;100857.22;5046487;28;20043;-79
2021/06/27 06:38:09;;;;;;;20.58;17.80;;;;;;;19.30;70.75;100858.88;5009978;28;20447;-79
2021/06/27 06:40:37;;;;;;;18.55;16.65;;;;;;;19.37;70.92;100866.63;5047504;28;20049;-79
2021/06/27 06:43:02;;;;;;;19.08;17.10;;;;;;;19.41;70.59;100862.00;5049018;28;20082;-79
2021/06/27 06:45:28;;;;;;;18.67;16.70;;;;;;;19.44;71.09;100862.78;5045423;28;20446;-79
2021/06/27 06:47:54;;;;;;;17.02;15.43;;;;;;;19.56;70.69;100858.75;5047056;28;20033;-79
2021/06/27 06:50:20;;;;;;;17.55;15.90;;;;;;;19.65;69.84;100850.38;5049198;28;20094;-79
2021/06/27 06:52:46;;;;;;;17.45;15.77;;;;;;;19.74;69.80;100846.50;5043103;28;20041;-78
2021/06/27 06:55:11;;;;;;;17.88;16.10;;;;;;;19.78;69.04;100847.25;5043571;28;20029;-79
2021/06/27 06:57:37;;;;;;;17.48;15.57;;;;;;;19.90;69.48;100846.75;5048563;28;20121;-79
2021/06/27 07:00:05;;;;;;;16.77;15.07;;;;;;;20.03;69.01;100850.69;5047708;28;20479;-79
2021/06/27 07:02:30;;;;;;;18.08;16.23;;;;;;;20.12;67.95;100847.66;5046793;28;20044;-79
2021/06/27 07:04:55;;;;;;;15.93;14.43;;;;;;;20.21;67.81;100850.88;5048857;28;20129;-79
2021/06/27 07:07:21;;;;;;;16.85;15.30;;;;;;;20.28;68.03;100844.34;5048236;28;20044;-79
2021/06/27 07:09:46;;;;;;;17.60;15.43;;;;;;;20.26;67.86;100843.53;5046453;28;20112;-79
2021/06/27 07:12:11;;;;;;;16.38;14.88;;;;;;;20.42;67.85;100847.31;5048881;28;20083;-79
2021/06/27 07:14:37;;;;;;;16.13;14.43;;;;;;;20.56;67.86;100852.13;5048402;28;20376;-79
2021/06/27 07:17:02;;;;;;;16.02;14.52;;;;;;;20.70;67.28;100851.56;5045533;28;20067;-79
2021/06/27 07:19:28;;;;;;;15.32;13.80;;;;;;;20.81;66.20;100849.25;5047039;28;20138;-79
2021/06/27 07:21:53;;;;;;;15.45;13.95;;;;;;;20.84;65.84;100843.75;5048665;28;20033;-79
2021/06/27 07:24:18;;;;;;;17.17;15.38;;;;;;;20.95;65.17;100846.84;5046710;28;20512;-79
2021/06/27 07:26:44;;;;;;;16.95;14.05;;;;;;;21.04;64.59;100837.53;5048194;28;20041;-79
2021/06/27 07:29:09;;;;;;;17.33;15.32;;;;;;;21.18;64.50;100831.53;5046127;28;20068;-79
2021/06/27 07:31:35;;;;;;;16.02;14.40;;;;;;;21.22;64.14;100836.69;5054058;28;20041;-79
2021/06/27 07:34:00;;;;;;;15.20;13.80;;;;;;;21.31;64.74;100832.69;5051352;28;20037;-80
2021/06/27 07:36:26;;;;;;;16.35;14.55;;;;;;;21.45;64.30;100827.59;5049568;28;20037;-80
2021/06/27 07:38:51;;;;;;;15.23;13.60;;;;;;;21.60;63.21;100822.44;5049815;28;20088;-79
2021/06/27 07:41:16;;;;;;;15.18;13.57;;;;;;;21.72;63.37;100826.34;5051677;28;20406;-80
2021/06/27 07:43:42;;;;;;;14.30;13.00;;;;;;;21.80;62.63;100826.88;5052502;28;20037;-80
2021/06/27 07:46:07;;;;;;;13.00;11.70;;;;;;;21.98;62.54;100822.41;5048742;28;20045;-80
2021/06/27 07:48:32;;;;;;;14.82;13.35;;;;;;;22.14;62.06;100814.47;5049284;28;20029;-80
2021/06/27 07:50:58;;;;;;;16.38;12.98;;;;;;;22.27;61.76;100813.81;5051496;28;20123;-79
2021/06/27 07:53:24;;;;;;;14.10;12.70;;;;;;;22.38;61.11;100817.78;5048972;28;20069;-80
2021/06/27 07:55:49;;;;;;;15.43;13.93;;;;;;;22.35;61.58;100809.84;5049615;28;20029;-80
2021/06/27 07:58:15;;;;;;;13.77;12.25;;;;;;;22.43;61.20;100813.03;5033570;28;20048;-80
2021/06/27 08:00:40;;;;;;;17.58;14.05;;;;;;;22.54;60.93;100810.66;5048409;28;20535;-80
2021/06/27 08:03:06;;;;;;;13.45;12.15;;;;;;;22.61;60.07;100812.09;5050538;28;20174;-80
2021/06/27 08:05:31;;;;;;;12.30;11.02;;;;;;;22.76;60.65;100807.72;5050336;28;20130;-80
2021/06/27 08:07:56;;;;;;;13.77;12.45;;;;;;;22.78;59.84;100813.03;5044471;28;20025;-80
2021/06/27 08:10:22;;;;;;;13.00;11.80;;;;;;;22.92;60.34;100805.09;5049046;28;20093;-80
2021/06/27 08:12:47;;;;;;;13.73;12.35;;;;;;;23.14;59.35;100807.53;5049977;28;20037;-80
2021/06/27 08:15:19;;;;;;;12.40;11.20;;;;;;;23.28;58.96;100799.56;5047148;28;20099;-79
2021/06/27 08:17:49;;;;;;;11.95;9.73;;;;;;;23.48;57.25;100795.78;5047459;28;20427;-79
2021/06/27 08:20:16;;;;;;;9.13;8.23;;;;;;;23.59;56.83;100798.75;5043789;28;20038;-80
2021/06/27 08:22:42;;;;;;;9.05;8.15;;;;;;;23.69;56.27;100791.00;5047726;28;20120;-79
2021/06/27 08:25:08;;;;;;;8.95;8.05;;;;;;;23.81;55.22;100794.84;5048775;28;20028;-79
2021/06/27 08:27:34;;;;;;;8.57;6.30;;;;;;;23.99;53.50;100791.09;5047568;28;20116;-79
2021/06/27 08:29:59;;;;;;;7.13;6.43;;;;;;;24.09;51.17;100785.19;5044580;28;20061;-79
2021/06/27 08:32:25;;;;;;;6.05;5.43;;;;;;;24.21;51.04;100781.78;5049008;28;20124;-80
2021/06/27 08:34:51;;;;;;;5.93;5.05;;;;;;;24.34;50.37;100784.59;5046122;28;20045;-79
2021/06/27 08:37:16;;;;;;;5.10;4.57;;;;;;;24.44;49.26;100783.06;5046252;28;20036;-79
2021/06/27 08:39:41;;;;;;;5.18;4.68;;;;;;;24.65;48.67;100780.94;5048710;28;20048;-80
2021/06/27 08:42:07;;;;;;;5.97;4.97;;;;;;;24.84;48.39;100784.25;5045990;28;20037;-80
2021/06/27 08:44:34;;;;;;;6.55;5.80;;;;;;;25.02;47.98;100784.97;5046207;28;20033;-79
2021/06/27 08:47:02;;;;;;;5.75;5.15;;;;;;;25.20;46.45;100782.94;5046675;28;20479;-80
2021/06/27 08:49:27;;;;;;;6.00;5.30;;;;;;;25.27;46.13;100783.44;5046802;28;20676;-79
2021/06/27 08:51:55;;;;;;;5.50;4.63;;;;;;;25.39;44.73;100785.38;5045837;28;20048;-79
2021/06/27 08:54:20;;;;;;;6.10;4.55;;;;;;;25.51;44.65;100787.25;5046543;28;20041;-79
2021/06/27 08:56:45;;;;;;;4.57;4.18;;;;;;;25.70;44.09;100789.66;5048552;28;20035;-80
2021/06/27 08:59:11;;;;;;;5.95;4.88;;;;;;;25.67;43.72;100776.31;5048005;28;20064;-80
2021/06/27 09:01:36;;;;;;;5.93;4.47;;;;;;;25.69;43.58;100776.22;5047134;28;20049;-79
2021/06/27 09:04:01;;;;;;;5.57;4.93;;;;;;;25.83;44.12;100776.16;5045788;28;20056;-79
2021/06/27 09:06:32;;;;;;;5.40;4.90;;;;;;;26.10;44.50;100776.22;5047797;28;20044;-79
2021/06/27 09:09:18;;;;;;;5.70;4.60;;;;;;;26.52;41.94;100776.13;5045108;28;20499;-80
2021/06/27 09:12:02;;;;;;;6.65;5.03;;;;;;;26.41;41.17;100775.00;5042418;28;20094;-77
2021/06/27 09:14:38;;;;;;;4.55;3.70;;;;;;;26.57;40.62;100773.97;5041901;28;20037;-77
2021/06/27 09:17:19;;;;;;;5.38;4.00;;;;;;;26.65;39.02;100772.47;5039084;28;20602;-77
2021/06/27 09:19:50;;;;;;;5.47;4.22;;;;;;;26.65;40.76;100775.16;5039332;28;20488;-78
2021/06/27 09:22:15;;;;;;;6.00;4.68;;;;;;;26.70;41.07;100776.69;5041022;28;20579;-78
2021/06/27 09:24:42;;;;;;;8.57;7.15;;;;;;;26.69;41.49;100772.25;5041734;28;20131;-78
2021/06/27 09:27:23;;;;;;;6.22;5.35;;;;;;;26.76;41.09;100765.44;5042335;28;20040;-77
2021/06/27 09:29:50;;;;;;;6.63;4.78;;;;;;;26.82;41.41;100765.00;5041350;28;20498;-78
2021/06/27 09:32:22;;;;;;;6.97;4.95;;;;;;;26.86;40.78;100766.53;5041316;28;20049;-78
2021/06/27 09:34:47;;;;;;;5.70;5.10;;;;;;;26.97;41.37;100763.91;5041716;28;20030;-77
2021/06/27 09:37:26;;;;;;;5.55;4.40;;;;;;;27.13;40.40;100762.81;5043566;28;20498;-78
2021/06/27 09:39:59;;;;;;;5.68;4.57;;;;;;;27.09;40.26;100764.84;5044029;28;20029;-78
2021/06/27 09:42:26;;;;;;;4.38;3.90;;;;;;;27.42;39.51;100761.59;5039692;28;20064;-78
2021/06/27 09:45:03;;;;;;;4.88;4.38;;;;;;;27.84;36.92;100759.41;5040655;28;20410;-78
2021/06/27 09:47:28;;;;;;;6.88;5.03;;;;;;;27.98;34.69;100755.66;5055502;28;20458;-78
2021/06/27 09:49:54;;;;;;;3.50;2.75;;;;;;;27.83;33.76;100752.28;5041019;28;20045;-77
2021/06/27 09:52:40;;;;;;;3.63;2.97;;;;;;;27.82;34.50;100750.53;5041210;28;20041;-77
2021/06/27 09:55:08;;;;;;;3.88;3.20;;;;;;;28.03;34.78;100747.19;5022120;28;20530;-78
2021/06/27 09:57:33;;;;;;;3.90;3.08;;;;;;;28.31;35.33;100741.38;5039968;28;20041;-78
2021/06/27 09:59:58;;;;;;;4.97;3.50;;;;;;;28.48;35.62;100741.94;5036955;28;20067;-78
2021/06/27 10:02:24;;;;;;;4.75;3.10;;;;;;;28.77;34.99;100740.53;5042245;28;20040;-78
2021/06/27 10:04:49;;;;;;;7.28;2.85;;;;;;;29.07;34.34;100740.94;5041629;28;20126;-78
2021/06/27 10:07:15;;;;;;;5.18;3.53;;;;;;;29.16;33.50;100741.06;5040831;28;20040;-77
2021/06/27 10:09:41;;;;;;;5.32;3.40;;;;;;;29.12;33.90;100739.56;5040831;28;20035;-78
2021/06/27 10:12:09;;;;;;;5.32;3.50;;;;;;;28.75;34.53;100739.78;5043368;28;20040;-78
2021/06/27 10:14:41;;;;;;;3.55;2.90;;;;;;;28.20;34.72;100738.63;5040018;28;20060;-78
2021/06/27 10:17:06;;;;;;;5.60;3.15;;;;;;;27.75;34.63;100738.41;5040613;28;20502;-77
2021/06/27 10:19:32;;;;;;;3.40;2.88;;;;;;;27.78;35.25;100743.59;5041634;28;20032;-77
2021/06/27 10:21:59;;;;;;;4.18;2.80;;;;;;;27.96;33.12;100736.81;5040735;28;20029;-77
2021/06/27 10:24:26;;;;;;;3.03;2.28;;;;;;;28.06;34.14;100736.09;5040121;28;20041;-77
2021/06/27 10:26:53;;;;;;;4.60;2.90;;;;;;;28.30;33.95;100723.38;5041598;28;20510;-78
2021/06/27 10:29:20;;;;;;;3.63;2.60;;;;;;;28.55;33.21;100727.75;5041281;28;20530;-77
2021/06/27 10:31:46;;;;;;;4.35;2.80;;;;;;;28.66;32.58;100728.78;5037113;28;20033;-77
2021/06/27 10:34:12;;;;;;;3.10;2.47;;;;;;;28.73;32.68;100735.44;5040744;28;20496;-77
2021/06/27 10:36:41;;;;;;;3.92;2.65;;;;;;;28.92;32.30;100729.41;5042677;28;20033;-77
2021/06/27 10:39:10;;;;;;;3.40;2.50;;;;;;;29.30;31.40;100730.94;5040696;28;20045;-77
2021/06/27 10:42:00;;;;;;;3.10;2.38;;;;;;;29.51;30.77;100731.88;5042274;28;20083;-78
2021/06/27 10:44:27;;;;;;;3.42;2.40;;;;;;;29.57;30.70;100725.91;5039010;28;20547;-77
2021/06/27 10:46:55;;;;;;;3.08;2.38;;;;;;;29.69;31.08;100719.50;5040018;28;20076;-78
2021/06/27 10:49:48;;;;;;;4.18;2.20;;;;;;;29.93;30.62;100727.44;5041482;28;20040;-78
2021/06/27 10:52:15;;;;;;;3.00;2.38;;;;;;;29.97;29.97;100733.47;5034977;28;20475;-78
2021/06/27 10:54:43;;;;;;;3.33;2.42;;;;;;;29.76;31.05;100729.84;5040515;28;20037;-77
2021/06/27 10:57:20;;;;;;;3.65;2.50;;;;;;;29.59;30.71;100733.97;5037012;28;20391;-78
2021/06/27 10:59:49;;;;;;;3.47;2.42;;;;;;;29.38;31.97;100731.16;5040166;28;20029;-78
2021/06/27 11:02:20;;;;;;;3.15;2.25;;;;;;;29.48;31.96;100726.69;5040050;28;20444;-78
2021/06/27 11:04:47;;;;;;;3.22;2.60;;;;;;;29.52;31.99;100728.16;5042883;28;20041;-78
2021/06/27 11:07:31;;;;;;;2.97;2.20;;;;;;;29.48;29.80;100727.56;5044337;28;20034;-78
2021/06/27 11:10:18;;;;;;;3.00;2.30;;;;;;;29.46;30.04;100729.53;5041274;28;20068;-78
2021/06/27 11:12:59;;;;;;;2.97;2.45;;;;;;;29.48;30.24;100729.41;5045593;28;20037;-78
2021/06/27 11:15:30;;;;;;;3.22;2.33;;;;;;;29.10;30.11;100730.69;5022857;28;20516;-78